createdAt,value
2023-05-05T00:02:19.547Z,98437.69
2023-05-05T00:05:24.658Z,98436.03
2023-05-05T00:08:29.200Z,98425.59
2023-05-05T00:11:32.760Z,98413.38
2023-05-05T00:14:36.692Z,98419.28
2023-05-05T00:17:41.778Z,98418.34
2023-05-05T00:20:47.096Z,98424.25
2023-05-05T00:23:50.493Z,98427.44
2023-05-05T00:26:54.248Z,98426.38
2023-05-05T00:29:57.824Z,98415.81
2023-05-05T00:33:03.385Z,98415.22
2023-05-05T00:36:07.466Z,98410.91
2023-05-05T00:39:12.043Z,98403.75
2023-05-05T00:42:16.406Z,98410.56
2023-05-05T00:45:21.478Z,98411.97
2023-05-05T00:48:26.882Z,98421.13
2023-05-05T00:51:31.403Z,98420.50
2023-05-05T00:54:35.839Z,98411.81
2023-05-05T00:57:39.724Z,98417.59
2023-05-05T01:00:43.212Z,98413.50
2023-05-05T01:03:48.497Z,98403.66
2023-05-05T01:07:04.896Z,98414.56
2023-05-05T01:10:20.393Z,98411.94
2023-05-05T01:13:33.768Z,98411.38
2023-05-05T01:16:42.059Z,98407.56
2023-05-05T01:20:00.182Z,98408.84
2023-05-05T01:23:10.902Z,98405.94
2023-05-05T01:26:29.047Z,98406.69
2023-05-05T01:30:04.504Z,98398.16
2023-05-05T01:33:15.741Z,98392.13
2023-05-05T01:36:24.618Z,98404.34
2023-05-05T01:39:34.740Z,98402.84
2023-05-05T01:42:42.707Z,98401.22
2023-05-05T01:45:48.097Z,98397.66
2023-05-05T01:48:55.014Z,98388.75
2023-05-05T01:52:00.827Z,98394.56
2023-05-05T01:55:07.851Z,98383.56
2023-05-05T01:58:13.490Z,98379.25
2023-05-05T02:01:20.522Z,98382.44
2023-05-05T02:04:26.171Z,98385.09
2023-05-05T02:07:32.868Z,98379.97
2023-05-05T02:10:40.918Z,98394.00
2023-05-05T02:13:46.196Z,98396.91
2023-05-05T02:16:54.015Z,98390.81
2023-05-05T02:20:02.334Z,98385.81
2023-05-05T02:23:08.388Z,98396.00
2023-05-05T02:26:17.074Z,98386.47
2023-05-05T02:29:47.505Z,98382.31
2023-05-05T02:32:57.147Z,98387.00
2023-05-05T02:36:13.829Z,98380.44
2023-05-05T02:39:31.954Z,98382.00
2023-05-05T02:42:42.916Z,98387.13
2023-05-05T02:45:49.190Z,98381.09
2023-05-05T02:48:54.037Z,98379.84
2023-05-05T02:51:59.337Z,98381.06
2023-05-05T02:55:08.710Z,98367.50
2023-05-05T02:58:25.710Z,98375.47
2023-05-05T03:01:37.835Z,98376.44
2023-05-05T03:04:46.462Z,98377.03
2023-05-05T03:07:56.869Z,98382.78
2023-05-05T03:11:07.860Z,98379.38
2023-05-05T03:14:18.443Z,98383.53
2023-05-05T03:17:25.687Z,98372.16
2023-05-05T03:20:30.786Z,98377.50
2023-05-05T03:23:40.875Z,98384.03
2023-05-05T03:26:51.552Z,98376.88
2023-05-05T03:29:58.784Z,98376.84
2023-05-05T03:33:03.561Z,98376.56
2023-05-05T03:36:07.967Z,98381.25
2023-05-05T03:39:13.432Z,98379.25
2023-05-05T03:42:17.626Z,98390.72
2023-05-05T03:45:21.687Z,98382.94
2023-05-05T03:48:25.857Z,98382.63
2023-05-05T03:51:29.604Z,98383.41
2023-05-05T03:54:37.325Z,98395.06
2023-05-05T03:57:40.834Z,98384.66
2023-05-05T04:00:44.818Z,98388.25
2023-05-05T04:03:48.413Z,98396.59
2023-05-05T04:06:52.390Z,98402.81
2023-05-05T04:09:57.981Z,98392.13
2023-05-05T04:13:02.152Z,98393.53
2023-05-05T04:16:08.846Z,98396.91
2023-05-05T04:19:14.531Z,98395.38
2023-05-05T04:22:18.144Z,98402.34
2023-05-05T04:25:23.509Z,98397.38
2023-05-05T04:28:27.380Z,98397.69
2023-05-05T04:31:32.167Z,98398.63
2023-05-05T04:34:36.298Z,98395.38
2023-05-05T04:37:40.377Z,98390.97
2023-05-05T04:40:46.327Z,98391.81
2023-05-05T04:43:50.169Z,98391.59
2023-05-05T04:46:53.814Z,98391.91
2023-05-05T04:49:58.164Z,98405.25
2023-05-05T04:53:01.975Z,98394.78
2023-05-05T04:56:08.027Z,98394.00
2023-05-05T04:59:11.756Z,98405.28
2023-05-05T05:02:15.717Z,98399.59
2023-05-05T05:05:19.519Z,98393.31
2023-05-05T05:08:24.136Z,98399.94
2023-05-05T05:11:29.244Z,98403.72
2023-05-05T05:14:38.159Z,98400.41
2023-05-05T05:17:42.503Z,98407.00
2023-05-05T05:20:47.200Z,98413.09
2023-05-05T05:23:51.538Z,98409.03
2023-05-05T05:26:57.539Z,98414.63
2023-05-05T05:30:01.571Z,98415.03
2023-05-05T05:33:07.993Z,98402.25
2023-05-05T05:36:11.748Z,98414.97
2023-05-05T05:39:15.668Z,98416.44
2023-05-05T05:42:20.969Z,98413.16
2023-05-05T05:45:25.270Z,98405.34
2023-05-05T05:48:30.003Z,98407.09
2023-05-05T05:51:35.753Z,98415.16
2023-05-05T05:54:49.116Z,98404.88
2023-05-05T05:57:57.745Z,98405.72
2023-05-05T06:01:04.095Z,98408.13
2023-05-05T06:04:08.754Z,98411.50
2023-05-05T06:07:14.445Z,98403.25
2023-05-05T06:10:26.399Z,98410.44
2023-05-05T06:13:36.230Z,98399.13
2023-05-05T06:16:41.630Z,98409.38
2023-05-05T06:19:49.305Z,98405.13
2023-05-05T06:22:53.604Z,98409.50
2023-05-05T06:25:57.752Z,98416.22
2023-05-05T06:29:03.015Z,98412.72
2023-05-05T06:32:08.521Z,98409.81
2023-05-05T06:35:12.508Z,98417.56
2023-05-05T06:38:16.043Z,98412.94
2023-05-05T06:41:19.953Z,98415.59
2023-05-05T06:44:25.256Z,98419.88
2023-05-05T06:47:28.847Z,98413.06
2023-05-05T06:50:32.941Z,98411.03
2023-05-05T06:53:36.579Z,98413.28
2023-05-05T06:56:41.044Z,98417.75
2023-05-05T06:59:45.785Z,98410.78
2023-05-05T07:02:49.699Z,98417.78
2023-05-05T07:05:53.917Z,98418.44
2023-05-05T07:08:58.009Z,98415.47
2023-05-05T07:12:02.032Z,98417.78
2023-05-05T07:15:23.286Z,98409.81
2023-05-05T07:18:30.688Z,98409.69
2023-05-05T07:21:35.481Z,98412.13
2023-05-05T07:24:38.958Z,98413.16
2023-05-05T07:27:42.966Z,98412.56
2023-05-05T07:30:47.878Z,98404.84
2023-05-05T07:33:52.181Z,98402.09
2023-05-05T07:36:56.424Z,98413.38
2023-05-05T07:40:00.327Z,98405.59
2023-05-05T07:43:04.848Z,98413.16
2023-05-05T07:46:10.134Z,98413.47
2023-05-05T07:49:13.709Z,98416.22
2023-05-05T07:52:46.803Z,98416.97
2023-05-05T07:55:55.211Z,98419.88
2023-05-05T07:58:59.212Z,98415.66
2023-05-05T08:02:04.149Z,98412.34
2023-05-05T08:05:09.475Z,98403.97
2023-05-05T08:08:13.334Z,98412.16
2023-05-05T08:11:17.334Z,98412.41
2023-05-05T08:14:22.009Z,98416.09
2023-05-05T08:17:27.348Z,98420.28
2023-05-05T08:20:31.053Z,98418.16
2023-05-05T08:23:35.272Z,98415.59
2023-05-05T08:26:38.806Z,98424.88
2023-05-05T08:29:42.660Z,98414.41
2023-05-05T08:32:48.182Z,98420.25
2023-05-05T08:35:52.142Z,98416.53
2023-05-05T08:38:55.814Z,98414.00
2023-05-05T08:41:59.694Z,98413.38
2023-05-05T08:45:03.337Z,98416.03
2023-05-05T08:48:10.306Z,98410.22
